sensor_id;sensor_type;location;lat;lon;timestamp;temperature;humidity
70269;DHT22;58514;48.398;-4.274;2023-02-01T00:01:38;9.20;99.90
70269;DHT22;58514;48.398;-4.274;2023-02-01T00:04:03;9.20;99.90
70269;DHT22;58514;48.398;-4.274;2023-02-01T00:06:29;9.20;99.90
70269;DHT22;58514;48.398;-4.274;2023-02-01T00:08:55;9.20;99.90
70269;DHT22;58514;48.398;-4.274;2023-02-01T00:11:21;9.20;99.90
70269;DHT22;58514;48.398;-4.274;2023-02-01T00:13:47;9.20;99.90
70269;DHT22;58514;48.398;-4.274;2023-02-01T00:16:16;9.20;99.90
70269;DHT22;58514;48.398;-4.274;2023-02-01T00:18:42;9.20;99.90
70269;DHT22;58514;48.398;-4.274;2023-02-01T00:21:12;9.20;99.90
70269;DHT22;58514;48.398;-4.274;2023-02-01T00:23:37;9.20;99.90
70269;DHT22;58514;48.398;-4.274;2023-02-01T00:26:04;9.20;99.90
70269;DHT22;58514;48.398;-4.274;2023-02-01T00:28:30;9.20;99.90
70269;DHT22;58514;48.398;-4.274;2023-02-01T00:30:57;9.10;99.90
70269;DHT22;58514;48.398;-4.274;2023-02-01T00:33:23;9.10;99.90
70269;DHT22;58514;48.398;-4.274;2023-02-01T00:35:48;9.00;99.90
70269;DHT22;58514;48.398;-4.274;2023-02-01T00:38:14;9.00;99.90
70269;DHT22;58514;48.398;-4.274;2023-02-01T00:40:39;9.00;99.90
70269;DHT22;58514;48.398;-4.274;2023-02-01T00:43:05;9.00;99.90
70269;DHT22;58514;48.398;-4.274;2023-02-01T00:45:30;9.00;99.90
70269;DHT22;58514;48.398;-4.274;2023-02-01T00:47:56;9.00;99.90
70269;DHT22;58514;48.398;-4.274;2023-02-01T00:50:22;9.00;99.90
70269;DHT22;58514;48.398;-4.274;2023-02-01T00:52:47;9.00;99.90
70269;DHT22;58514;48.398;-4.274;2023-02-01T00:55:13;9.00;99.90
70269;DHT22;58514;48.398;-4.274;2023-02-01T00:57:38;9.00;99.90
70269;DHT22;58514;48.398;-4.274;2023-02-01T01:00:04;9.00;99.90
70269;DHT22;58514;48.398;-4.274;2023-02-01T01:02:30;9.00;99.90
70269;DHT22;58514;48.398;-4.274;2023-02-01T01:04:55;9.00;99.90
70269;DHT22;58514;48.398;-4.274;2023-02-01T01:07:21;9.00;99.90
70269;DHT22;58514;48.398;-4.274;2023-02-01T01:09:46;9.00;99.90
70269;DHT22;58514;48.398;-4.274;2023-02-01T01:12:12;9.00;99.90
70269;DHT22;58514;48.398;-4.274;2023-02-01T01:14:37;9.00;99.90
70269;DHT22;58514;48.398;-4.274;2023-02-01T01:17:03;9.10;99.90
70269;DHT22;58514;48.398;-4.274;2023-02-01T01:19:28;9.10;99.90
70269;DHT22;58514;48.398;-4.274;2023-02-01T01:21:54;9.10;99.90
70269;DHT22;58514;48.398;-4.274;2023-02-01T01:24:19;9.10;99.90
70269;DHT22;58514;48.398;-4.274;2023-02-01T01:26:45;9.10;99.90
70269;DHT22;58514;48.398;-4.274;2023-02-01T01:29:11;9.10;99.90
70269;DHT22;58514;48.398;-4.274;2023-02-01T01:31:36;9.10;99.90
70269;DHT22;58514;48.398;-4.274;2023-02-01T01:34:02;9.10;99.90
70269;DHT22;58514;48.398;-4.274;2023-02-01T01:36:28;9.10;99.90
70269;DHT22;58514;48.398;-4.274;2023-02-01T01:38:53;9.10;99.90
70269;DHT22;58514;48.398;-4.274;2023-02-01T01:41:21;9.10;99.90
70269;DHT22;58514;48.398;-4.274;2023-02-01T01:43:51;9.10;99.90
70269;DHT22;58514;48.398;-4.274;2023-02-01T01:46:18;9.10;99.90
70269;DHT22;58514;48.398;-4.274;2023-02-01T01:48:44;9.20;99.90
70269;DHT22;58514;48.398;-4.274;2023-02-01T01:51:10;9.20;99.90
70269;DHT22;58514;48.398;-4.274;2023-02-01T01:53:41;9.10;99.90
70269;DHT22;58514;48.398;-4.274;2023-02-01T01:56:09;9.20;99.90
70269;DHT22;58514;48.398;-4.274;2023-02-01T01:58:34;9.20;99.90
70269;DHT22;58514;48.398;-4.274;2023-02-01T02:01:00;9.20;99.90
70269;DHT22;58514;48.398;-4.274;2023-02-01T02:05:55;9.20;99.90
70269;DHT22;58514;48.398;-4.274;2023-02-01T02:08:22;9.20;99.90
70269;DHT22;58514;48.398;-4.274;2023-02-01T02:10:49;9.20;99.90
70269;DHT22;58514;48.398;-4.274;2023-02-01T02:13:34;9.20;99.90
70269;DHT22;58514;48.398;-4.274;2023-02-01T02:31:26;9.10;99.90
70269;DHT22;58514;48.398;-4.274;2023-02-01T02:44:33;9.10;99.90
70269;DHT22;58514;48.398;-4.274;2023-02-01T02:47:23;9.10;99.90
70269;DHT22;58514;48.398;-4.274;2023-02-01T02:52:40;9.00;99.90
70269;DHT22;58514;48.398;-4.274;2023-02-01T02:55:26;9.00;99.90
70269;DHT22;58514;48.398;-4.274;2023-02-01T02:57:52;9.00;99.90
70269;DHT22;58514;48.398;-4.274;2023-02-01T03:00:36;9.00;99.90
70269;DHT22;58514;48.398;-4.274;2023-02-01T03:03:21;8.90;99.90
70269;DHT22;58514;48.398;-4.274;2023-02-01T03:06:10;8.90;99.90
70269;DHT22;58514;48.398;-4.274;2023-02-01T03:08:37;8.90;99.90
70269;DHT22;58514;48.398;-4.274;2023-02-01T03:13:40;8.90;99.90
70269;DHT22;58514;48.398;-4.274;2023-02-01T03:18:36;8.90;99.90
70269;DHT22;58514;48.398;-4.274;2023-02-01T03:21:06;8.90;99.90
70269;DHT22;58514;48.398;-4.274;2023-02-01T03:23:33;8.90;99.90
70269;DHT22;58514;48.398;-4.274;2023-02-01T03:26:01;8.80;99.90
70269;DHT22;58514;48.398;-4.274;2023-02-01T03:28:27;8.80;99.90
70269;DHT22;58514;48.398;-4.274;2023-02-01T03:30:55;8.90;99.90
70269;DHT22;58514;48.398;-4.274;2023-02-01T03:33:21;8.80;99.90
70269;DHT22;58514;48.398;-4.274;2023-02-01T03:38:25;8.80;99.90
70269;DHT22;58514;48.398;-4.274;2023-02-01T03:40:56;8.90;99.90
70269;DHT22;58514;48.398;-4.274;2023-02-01T03:43:24;8.90;99.90
70269;DHT22;58514;48.398;-4.274;2023-02-01T03:45:50;8.90;99.90
70269;DHT22;58514;48.398;-4.274;2023-02-01T03:48:17;8.90;99.90
70269;DHT22;58514;48.398;-4.274;2023-02-01T03:50:44;8.90;99.90
70269;DHT22;58514;48.398;-4.274;2023-02-01T03:53:14;8.90;99.90
70269;DHT22;58514;48.398;-4.274;2023-02-01T03:55:41;9.00;99.90
70269;DHT22;58514;48.398;-4.274;2023-02-01T03:58:17;9.00;99.90
70269;DHT22;58514;48.398;-4.274;2023-02-01T04:00:45;9.00;99.90
70269;DHT22;58514;48.398;-4.274;2023-02-01T04:03:11;9.00;99.90
70269;DHT22;58514;48.398;-4.274;2023-02-01T04:05:37;9.00;99.90
70269;DHT22;58514;48.398;-4.274;2023-02-01T04:08:02;9.00;99.90
70269;DHT22;58514;48.398;-4.274;2023-02-01T04:10:28;9.00;99.90
70269;DHT22;58514;48.398;-4.274;2023-02-01T04:12:54;9.00;99.90
70269;DHT22;58514;48.398;-4.274;2023-02-01T04:15:19;9.00;99.90
70269;DHT22;58514;48.398;-4.274;2023-02-01T04:17:45;9.00;99.90
70269;DHT22;58514;48.398;-4.274;2023-02-01T04:20:10;9.00;99.90
70269;DHT22;58514;48.398;-4.274;2023-02-01T04:22:36;9.00;99.90
70269;DHT22;58514;48.398;-4.274;2023-02-01T04:25:02;9.00;99.90
70269;DHT22;58514;48.398;-4.274;2023-02-01T04:27:28;9.00;99.90
70269;DHT22;58514;48.398;-4.274;2023-02-01T04:29:53;9.00;99.90
70269;DHT22;58514;48.398;-4.274;2023-02-01T04:32:19;8.90;99.90
70269;DHT22;58514;48.398;-4.274;2023-02-01T04:34:47;8.90;99.90
70269;DHT22;58514;48.398;-4.274;2023-02-01T04:37:13;8.90;99.90
70269;DHT22;58514;48.398;-4.274;2023-02-01T04:39:38;8.90;99.90
70269;DHT22;58514;48.398;-4.274;2023-02-01T04:42:04;8.90;99.90
70269;DHT22;58514;48.398;-4.274;2023-02-01T04:44:29;8.90;99.90
70269;DHT22;58514;48.398;-4.274;2023-02-01T04:46:55;8.90;99.90
70269;DHT22;58514;48.398;-4.274;2023-02-01T04:49:21;8.90;99.90
70269;DHT22;58514;48.398;-4.274;2023-02-01T04:51:46;8.90;99.90
70269;DHT22;58514;48.398;-4.274;2023-02-01T04:54:12;8.90;99.90
70269;DHT22;58514;48.398;-4.274;2023-02-01T04:56:38;8.90;99.90
70269;DHT22;58514;48.398;-4.274;2023-02-01T04:59:04;8.90;99.90
70269;DHT22;58514;48.398;-4.274;2023-02-01T05:01:29;9.00;99.90
70269;DHT22;58514;48.398;-4.274;2023-02-01T05:03:55;8.90;99.90
70269;DHT22;58514;48.398;-4.274;2023-02-01T05:06:20;9.00;99.90
70269;DHT22;58514;48.398;-4.274;2023-02-01T05:08:46;9.00;99.90
70269;DHT22;58514;48.398;-4.274;2023-02-01T05:11:12;9.00;99.90
70269;DHT22;58514;48.398;-4.274;2023-02-01T05:14:00;9.00;99.90
70269;DHT22;58514;48.398;-4.274;2023-02-01T05:16:26;8.90;99.90
70269;DHT22;58514;48.398;-4.274;2023-02-01T05:18:52;9.00;99.90
70269;DHT22;58514;48.398;-4.274;2023-02-01T05:21:17;9.00;99.90
70269;DHT22;58514;48.398;-4.274;2023-02-01T05:23:43;8.90;99.90
70269;DHT22;58514;48.398;-4.274;2023-02-01T05:26:27;8.90;99.90
70269;DHT22;58514;48.398;-4.274;2023-02-01T05:28:52;8.90;99.90
70269;DHT22;58514;48.398;-4.274;2023-02-01T05:31:18;8.90;99.90
70269;DHT22;58514;48.398;-4.274;2023-02-01T05:33:44;8.90;99.90
70269;DHT22;58514;48.398;-4.274;2023-02-01T05:36:09;8.90;99.90
70269;DHT22;58514;48.398;-4.274;2023-02-01T05:38:35;8.90;99.90
70269;DHT22;58514;48.398;-4.274;2023-02-01T05:41:00;8.90;99.90
70269;DHT22;58514;48.398;-4.274;2023-02-01T05:43:26;8.90;99.90
70269;DHT22;58514;48.398;-4.274;2023-02-01T05:45:52;8.80;99.90
70269;DHT22;58514;48.398;-4.274;2023-02-01T05:48:17;8.80;99.90
70269;DHT22;58514;48.398;-4.274;2023-02-01T05:50:43;8.80;99.90
70269;DHT22;58514;48.398;-4.274;2023-02-01T05:53:08;8.80;99.90
70269;DHT22;58514;48.398;-4.274;2023-02-01T05:55:34;8.80;99.90
70269;DHT22;58514;48.398;-4.274;2023-02-01T05:57:59;8.80;99.90
70269;DHT22;58514;48.398;-4.274;2023-02-01T06:00:25;8.80;99.90
70269;DHT22;58514;48.398;-4.274;2023-02-01T06:02:51;8.80;99.90
70269;DHT22;58514;48.398;-4.274;2023-02-01T06:05:16;8.70;99.90
70269;DHT22;58514;48.398;-4.274;2023-02-01T06:07:42;8.80;99.90
70269;DHT22;58514;48.398;-4.274;2023-02-01T06:10:08;8.70;99.90
70269;DHT22;58514;48.398;-4.274;2023-02-01T06:12:33;8.80;99.90
70269;DHT22;58514;48.398;-4.274;2023-02-01T06:14:59;8.80;99.90
70269;DHT22;58514;48.398;-4.274;2023-02-01T06:17:25;8.80;99.90
70269;DHT22;58514;48.398;-4.274;2023-02-01T06:19:50;8.80;99.90
70269;DHT22;58514;48.398;-4.274;2023-02-01T06:22:16;8.80;99.90
70269;DHT22;58514;48.398;-4.274;2023-02-01T06:24:42;8.80;99.90
70269;DHT22;58514;48.398;-4.274;2023-02-01T06:27:07;8.80;99.90
70269;DHT22;58514;48.398;-4.274;2023-02-01T06:29:34;8.80;99.90
70269;DHT22;58514;48.398;-4.274;2023-02-01T06:32:00;8.80;99.90
70269;DHT22;58514;48.398;-4.274;2023-02-01T06:34:25;8.80;99.90
70269;DHT22;58514;48.398;-4.274;2023-02-01T06:36:51;8.80;99.90
70269;DHT22;58514;48.398;-4.274;2023-02-01T06:39:17;8.80;99.90
70269;DHT22;58514;48.398;-4.274;2023-02-01T06:41:45;8.80;99.90
70269;DHT22;58514;48.398;-4.274;2023-02-01T06:44:11;8.80;99.90
70269;DHT22;58514;48.398;-4.274;2023-02-01T06:46:36;8.80;99.90
70269;DHT22;58514;48.398;-4.274;2023-02-01T06:49:02;8.90;99.90
70269;DHT22;58514;48.398;-4.274;2023-02-01T06:51:27;8.80;99.90
70269;DHT22;58514;48.398;-4.274;2023-02-01T06:53:56;8.90;99.90
70269;DHT22;58514;48.398;-4.274;2023-02-01T06:56:21;8.90;99.90
70269;DHT22;58514;48.398;-4.274;2023-02-01T06:58:47;8.90;99.90
70269;DHT22;58514;48.398;-4.274;2023-02-01T07:01:13;8.80;99.90
70269;DHT22;58514;48.398;-4.274;2023-02-01T07:03:39;8.80;99.90
70269;DHT22;58514;48.398;-4.274;2023-02-01T07:06:05;8.90;99.90
70269;DHT22;58514;48.398;-4.274;2023-02-01T07:08:32;8.80;99.90
70269;DHT22;58514;48.398;-4.274;2023-02-01T07:11:02;8.90;99.90
70269;DHT22;58514;48.398;-4.274;2023-02-01T07:13:27;8.80;99.90
70269;DHT22;58514;48.398;-4.274;2023-02-01T07:15:53;8.80;99.90
70269;DHT22;58514;48.398;-4.274;2023-02-01T07:18:18;8.80;99.90
70269;DHT22;58514;48.398;-4.274;2023-02-01T07:20:49;8.80;99.90
70269;DHT22;58514;48.398;-4.274;2023-02-01T07:23:14;8.80;99.90
70269;DHT22;58514;48.398;-4.274;2023-02-01T07:25:40;8.80;99.90
70269;DHT22;58514;48.398;-4.274;2023-02-01T07:28:05;8.80;99.90
70269;DHT22;58514;48.398;-4.274;2023-02-01T07:30:31;8.80;99.90
70269;DHT22;58514;48.398;-4.274;2023-02-01T07:32:56;8.70;99.90
70269;DHT22;58514;48.398;-4.274;2023-02-01T07:35:27;8.70;99.90
70269;DHT22;58514;48.398;-4.274;2023-02-01T07:37:52;8.70;99.90
70269;DHT22;58514;48.398;-4.274;2023-02-01T07:40:18;8.70;99.90
70269;DHT22;58514;48.398;-4.274;2023-02-01T07:42:43;8.70;99.90
70269;DHT22;58514;48.398;-4.274;2023-02-01T07:45:09;8.70;99.90
70269;DHT22;58514;48.398;-4.274;2023-02-01T07:47:35;8.80;99.90
70269;DHT22;58514;48.398;-4.274;2023-02-01T07:50:00;8.70;99.90
70269;DHT22;58514;48.398;-4.274;2023-02-01T07:52:29;8.70;99.90
70269;DHT22;58514;48.398;-4.274;2023-02-01T07:54:54;8.70;99.90
70269;DHT22;58514;48.398;-4.274;2023-02-01T07:57:20;8.80;99.90
70269;DHT22;58514;48.398;-4.274;2023-02-01T07:59:46;8.80;99.90
70269;DHT22;58514;48.398;-4.274;2023-02-01T08:02:41;8.80;99.90
70269;DHT22;58514;48.398;-4.274;2023-02-01T08:05:06;8.80;99.90
70269;DHT22;58514;48.398;-4.274;2023-02-01T08:07:32;8.70;99.90
70269;DHT22;58514;48.398;-4.274;2023-02-01T08:09:58;8.60;99.90
70269;DHT22;58514;48.398;-4.274;2023-02-01T08:12:25;8.60;99.90
70269;DHT22;58514;48.398;-4.274;2023-02-01T08:14:52;8.50;99.90
70269;DHT22;58514;48.398;-4.274;2023-02-01T08:17:18;8.50;99.90
70269;DHT22;58514;48.398;-4.274;2023-02-01T08:19:44;8.50;99.90
70269;DHT22;58514;48.398;-4.274;2023-02-01T08:22:09;8.50;99.90
70269;DHT22;58514;48.398;-4.274;2023-02-01T08:24:35;8.50;99.90
70269;DHT22;58514;48.398;-4.274;2023-02-01T08:27:03;8.60;99.90
70269;DHT22;58514;48.398;-4.274;2023-02-01T08:29:28;8.60;99.90
70269;DHT22;58514;48.398;-4.274;2023-02-01T08:31:54;8.60;99.90
70269;DHT22;58514;48.398;-4.274;2023-02-01T08:34:20;8.60;99.90
70269;DHT22;58514;48.398;-4.274;2023-02-01T08:36:45;8.70;99.90
70269;DHT22;58514;48.398;-4.274;2023-02-01T08:39:11;8.70;99.90
70269;DHT22;58514;48.398;-4.274;2023-02-01T08:41:36;8.70;99.90
70269;DHT22;58514;48.398;-4.274;2023-02-01T08:44:02;8.70;99.90
70269;DHT22;58514;48.398;-4.274;2023-02-01T08:46:28;8.70;99.90
70269;DHT22;58514;48.398;-4.274;2023-02-01T08:48:53;8.70;99.90
70269;DHT22;58514;48.398;-4.274;2023-02-01T08:51:19;8.80;99.90
70269;DHT22;58514;48.398;-4.274;2023-02-01T08:53:45;8.80;99.90
70269;DHT22;58514;48.398;-4.274;2023-02-01T08:56:12;8.90;99.90
70269;DHT22;58514;48.398;-4.274;2023-02-01T08:58:38;8.90;99.90
70269;DHT22;58514;48.398;-4.274;2023-02-01T09:01:04;8.90;99.90
70269;DHT22;58514;48.398;-4.274;2023-02-01T09:03:30;8.90;99.90
70269;DHT22;58514;48.398;-4.274;2023-02-01T09:06:02;9.00;99.90
70269;DHT22;58514;48.398;-4.274;2023-02-01T09:08:28;9.00;99.90
70269;DHT22;58514;48.398;-4.274;2023-02-01T09:10:53;9.00;99.90
70269;DHT22;58514;48.398;-4.274;2023-02-01T09:13:19;9.00;99.90
70269;DHT22;58514;48.398;-4.274;2023-02-01T09:15:45;9.00;99.90
70269;DHT22;58514;48.398;-4.274;2023-02-01T09:18:10;8.90;99.90
70269;DHT22;58514;48.398;-4.274;2023-02-01T09:20:36;8.90;99.90
70269;DHT22;58514;48.398;-4.274;2023-02-01T09:23:02;8.90;99.90
70269;DHT22;58514;48.398;-4.274;2023-02-01T09:25:27;8.80;99.90
70269;DHT22;58514;48.398;-4.274;2023-02-01T09:27:53;8.80;99.90
70269;DHT22;58514;48.398;-4.274;2023-02-01T09:30:19;8.90;99.90
70269;DHT22;58514;48.398;-4.274;2023-02-01T09:32:44;8.90;99.90
70269;DHT22;58514;48.398;-4.274;2023-02-01T09:35:10;8.90;99.90
70269;DHT22;58514;48.398;-4.274;2023-02-01T09:37:36;8.90;99.90
70269;DHT22;58514;48.398;-4.274;2023-02-01T09:40:03;8.90;99.90
70269;DHT22;58514;48.398;-4.274;2023-02-01T09:42:40;9.00;99.90
70269;DHT22;58514;48.398;-4.274;2023-02-01T09:47:41;9.10;99.90
70269;DHT22;58514;48.398;-4.274;2023-02-01T09:50:12;9.10;99.90
70269;DHT22;58514;48.398;-4.274;2023-02-01T09:52:52;9.10;99.90
70269;DHT22;58514;48.398;-4.274;2023-02-01T09:58:41;9.20;99.90
70269;DHT22;58514;48.398;-4.274;2023-02-01T10:01:09;9.10;99.90
70269;DHT22;58514;48.398;-4.274;2023-02-01T10:03:32;9.20;99.90
70269;DHT22;58514;48.398;-4.274;2023-02-01T10:08:56;9.20;99.90
70269;DHT22;58514;48.398;-4.274;2023-02-01T10:11:35;9.20;99.90
70269;DHT22;58514;48.398;-4.274;2023-02-01T10:14:36;9.30;99.90
70269;DHT22;58514;48.398;-4.274;2023-02-01T10:25:04;9.40;99.90
70269;DHT22;58514;48.398;-4.274;2023-02-01T10:27:34;9.40;99.90
70269;DHT22;58514;48.398;-4.274;2023-02-01T10:30:05;9.40;99.90
70269;DHT22;58514;48.398;-4.274;2023-02-01T10:32:33;9.40;99.90
70269;DHT22;58514;48.398;-4.274;2023-02-01T10:35:04;9.40;99.90
70269;DHT22;58514;48.398;-4.274;2023-02-01T10:37:34;9.50;99.90
70269;DHT22;58514;48.398;-4.274;2023-02-01T10:40:02;9.50;99.90
70269;DHT22;58514;48.398;-4.274;2023-02-01T10:42:30;9.50;99.90
70269;DHT22;58514;48.398;-4.274;2023-02-01T10:44:57;9.50;99.90
70269;DHT22;58514;48.398;-4.274;2023-02-01T10:47:23;9.50;99.90
70269;DHT22;58514;48.398;-4.274;2023-02-01T10:52:22;9.60;99.90
70269;DHT22;58514;48.398;-4.274;2023-02-01T10:54:51;9.60;99.90
70269;DHT22;58514;48.398;-4.274;2023-02-01T10:57:22;9.70;99.90
70269;DHT22;58514;48.398;-4.274;2023-02-01T10:59:50;9.70;99.90
70269;DHT22;58514;48.398;-4.274;2023-02-01T11:02:19;9.80;99.90
70269;DHT22;58514;48.398;-4.274;2023-02-01T11:04:45;9.80;99.90
70269;DHT22;58514;48.398;-4.274;2023-02-01T11:07:23;9.80;99.90
70269;DHT22;58514;48.398;-4.274;2023-02-01T11:09:50;9.90;99.90
70269;DHT22;58514;48.398;-4.274;2023-02-01T11:14:48;9.90;99.90
70269;DHT22;58514;48.398;-4.274;2023-02-01T11:19:42;9.90;99.90
70269;DHT22;58514;48.398;-4.274;2023-02-01T11:22:09;9.90;99.90
70269;DHT22;58514;48.398;-4.274;2023-02-01T11:24:36;9.90;99.90
70269;DHT22;58514;48.398;-4.274;2023-02-01T11:27:04;9.90;99.90
70269;DHT22;58514;48.398;-4.274;2023-02-01T11:29:37;9.90;99.90
70269;DHT22;58514;48.398;-4.274;2023-02-01T11:32:03;9.90;99.90
70269;DHT22;58514;48.398;-4.274;2023-02-01T11:34:37;9.90;99.90
70269;DHT22;58514;48.398;-4.274;2023-02-01T11:37:03;9.90;99.90
70269;DHT22;58514;48.398;-4.274;2023-02-01T11:39:33;9.90;99.90
70269;DHT22;58514;48.398;-4.274;2023-02-01T11:42:15;10.00;99.90
70269;DHT22;58514;48.398;-4.274;2023-02-01T11:44:44;10.10;99.90
70269;DHT22;58514;48.398;-4.274;2023-02-01T11:47:26;10.20;99.90
70269;DHT22;58514;48.398;-4.274;2023-02-01T11:49:53;10.30;99.90
70269;DHT22;58514;48.398;-4.274;2023-02-01T11:55:01;10.60;99.90
70269;DHT22;58514;48.398;-4.274;2023-02-01T12:00:17;10.80;99.90
70269;DHT22;58514;48.398;-4.274;2023-02-01T12:02:57;10.90;99.90
70269;DHT22;58514;48.398;-4.274;2023-02-01T12:10:35;11.10;99.90
70269;DHT22;58514;48.398;-4.274;2023-02-01T12:13:21;11.10;99.90
70269;DHT22;58514;48.398;-4.274;2023-02-01T12:16:07;11.10;99.90
70269;DHT22;58514;48.398;-4.274;2023-02-01T12:18:48;11.10;99.90
70269;DHT22;58514;48.398;-4.274;2023-02-01T12:41:31;11.30;99.90
70269;DHT22;58514;48.398;-4.274;2023-02-01T12:46:53;11.30;99.90
70269;DHT22;58514;48.398;-4.274;2023-02-01T12:49:38;11.30;99.90
70269;DHT22;58514;48.398;-4.274;2023-02-01T12:52:27;11.30;99.90
70269;DHT22;58514;48.398;-4.274;2023-02-01T12:54:57;11.20;99.90
70269;DHT22;58514;48.398;-4.274;2023-02-01T12:57:25;11.20;99.90
70269;DHT22;58514;48.398;-4.274;2023-02-01T13:00:13;11.10;99.90
70269;DHT22;58514;48.398;-4.274;2023-02-01T13:02:44;11.10;99.90
70269;DHT22;58514;48.398;-4.274;2023-02-01T13:07:50;10.90;99.90
70269;DHT22;58514;48.398;-4.274;2023-02-01T13:10:21;10.90;99.90
70269;DHT22;58514;48.398;-4.274;2023-02-01T13:12:51;10.90;99.90
70269;DHT22;58514;48.398;-4.274;2023-02-01T13:17:47;10.80;99.90
70269;DHT22;58514;48.398;-4.274;2023-02-01T13:20:26;10.80;99.90
70269;DHT22;58514;48.398;-4.274;2023-02-01T13:22:57;10.70;99.90
70269;DHT22;58514;48.398;-4.274;2023-02-01T13:25:35;10.70;99.90
70269;DHT22;58514;48.398;-4.274;2023-02-01T13:28:04;10.70;99.90
70269;DHT22;58514;48.398;-4.274;2023-02-01T13:35:41;10.60;99.90
70269;DHT22;58514;48.398;-4.274;2023-02-01T13:41:00;10.50;99.90
70269;DHT22;58514;48.398;-4.274;2023-02-01T13:43:29;10.50;99.90
70269;DHT22;58514;48.398;-4.274;2023-02-01T13:45:57;10.50;99.90
70269;DHT22;58514;48.398;-4.274;2023-02-01T13:48:29;10.50;99.90
70269;DHT22;58514;48.398;-4.274;2023-02-01T13:50:58;10.50;99.90
70269;DHT22;58514;48.398;-4.274;2023-02-01T13:53:29;10.50;99.90
70269;DHT22;58514;48.398;-4.274;2023-02-01T13:58:32;10.50;99.90
70269;DHT22;58514;48.398;-4.274;2023-02-01T14:03:43;10.40;99.90
70269;DHT22;58514;48.398;-4.274;2023-02-01T14:11:53;10.40;99.90
70269;DHT22;58514;48.398;-4.274;2023-02-01T14:19:21;10.30;99.90
70269;DHT22;58514;48.398;-4.274;2023-02-01T14:21:48;10.30;99.90
70269;DHT22;58514;48.398;-4.274;2023-02-01T14:26:42;10.40;99.90
70269;DHT22;58514;48.398;-4.274;2023-02-01T14:31:35;10.40;99.90
70269;DHT22;58514;48.398;-4.274;2023-02-01T14:34:05;10.40;99.90
70269;DHT22;58514;48.398;-4.274;2023-02-01T14:36:40;10.40;99.90
70269;DHT22;58514;48.398;-4.274;2023-02-01T14:39:17;10.30;99.90
70269;DHT22;58514;48.398;-4.274;2023-02-01T14:41:43;10.40;99.90
70269;DHT22;58514;48.398;-4.274;2023-02-01T14:49:20;10.40;99.90
70269;DHT22;58514;48.398;-4.274;2023-02-01T14:51:46;10.40;99.90
70269;DHT22;58514;48.398;-4.274;2023-02-01T14:54:12;10.40;99.90
70269;DHT22;58514;48.398;-4.274;2023-02-01T14:56:39;10.40;99.90
70269;DHT22;58514;48.398;-4.274;2023-02-01T14:59:09;10.50;99.90
70269;DHT22;58514;48.398;-4.274;2023-02-01T15:01:38;10.50;99.90
70269;DHT22;58514;48.398;-4.274;2023-02-01T15:06:32;10.50;99.90
70269;DHT22;58514;48.398;-4.274;2023-02-01T15:09:03;10.50;99.90
70269;DHT22;58514;48.398;-4.274;2023-02-01T15:11:29;10.60;99.90
70269;DHT22;58514;48.398;-4.274;2023-02-01T15:13:55;10.50;99.90
70269;DHT22;58514;48.398;-4.274;2023-02-01T15:16:22;10.50;99.90
70269;DHT22;58514;48.398;-4.274;2023-02-01T15:18:48;10.50;99.90
70269;DHT22;58514;48.398;-4.274;2023-02-01T15:21:16;10.50;99.90
70269;DHT22;58514;48.398;-4.274;2023-02-01T15:23:42;10.50;99.90
70269;DHT22;58514;48.398;-4.274;2023-02-01T15:26:07;10.50;99.90
70269;DHT22;58514;48.398;-4.274;2023-02-01T15:28:33;10.50;99.90
70269;DHT22;58514;48.398;-4.274;2023-02-01T15:31:03;10.50;99.90
70269;DHT22;58514;48.398;-4.274;2023-02-01T15:33:29;10.40;99.90
70269;DHT22;58514;48.398;-4.274;2023-02-01T15:38:32;10.40;99.90
70269;DHT22;58514;48.398;-4.274;2023-02-01T15:43:23;10.30;99.90
70269;DHT22;58514;48.398;-4.274;2023-02-01T15:45:49;10.30;99.90
70269;DHT22;58514;48.398;-4.274;2023-02-01T15:48:22;10.30;99.90
70269;DHT22;58514;48.398;-4.274;2023-02-01T15:50:48;10.30;99.90
70269;DHT22;58514;48.398;-4.274;2023-02-01T15:53:22;10.30;99.90
70269;DHT22;58514;48.398;-4.274;2023-02-01T15:55:51;10.30;99.90
70269;DHT22;58514;48.398;-4.274;2023-02-01T15:58:20;10.20;99.90
70269;DHT22;58514;48.398;-4.274;2023-02-01T16:00:48;10.20;99.90
70269;DHT22;58514;48.398;-4.274;2023-02-01T16:03:47;10.20;99.90
70269;DHT22;58514;48.398;-4.274;2023-02-01T16:06:08;10.20;99.90
70269;DHT22;58514;48.398;-4.274;2023-02-01T16:08:34;10.20;99.90
70269;DHT22;58514;48.398;-4.274;2023-02-01T16:13:27;10.10;99.90
70269;DHT22;58514;48.398;-4.274;2023-02-01T16:15:53;10.10;99.90
70269;DHT22;58514;48.398;-4.274;2023-02-01T16:18:19;10.10;99.90
70269;DHT22;58514;48.398;-4.274;2023-02-01T16:20:47;10.10;99.90
70269;DHT22;58514;48.398;-4.274;2023-02-01T16:23:13;10.10;99.90
70269;DHT22;58514;48.398;-4.274;2023-02-01T16:25:38;10.10;99.90
70269;DHT22;58514;48.398;-4.274;2023-02-01T16:28:04;10.10;99.90
70269;DHT22;58514;48.398;-4.274;2023-02-01T16:30:30;10.10;99.90
70269;DHT22;58514;48.398;-4.274;2023-02-01T16:32:57;10.10;99.90
70269;DHT22;58514;48.398;-4.274;2023-02-01T16:35:27;10.00;99.90
70269;DHT22;58514;48.398;-4.274;2023-02-01T16:37:53;10.10;99.90
70269;DHT22;58514;48.398;-4.274;2023-02-01T16:40:19;10.10;99.90
70269;DHT22;58514;48.398;-4.274;2023-02-01T16:42:47;10.10;99.90
70269;DHT22;58514;48.398;-4.274;2023-02-01T16:45:14;10.10;99.90
70269;DHT22;58514;48.398;-4.274;2023-02-01T16:47:40;10.00;99.90
70269;DHT22;58514;48.398;-4.274;2023-02-01T16:50:16;10.00;99.90
70269;DHT22;58514;48.398;-4.274;2023-02-01T16:52:41;10.00;99.90
70269;DHT22;58514;48.398;-4.274;2023-02-01T16:55:17;10.00;99.90
70269;DHT22;58514;48.398;-4.274;2023-02-01T16:57:43;10.00;99.90
70269;DHT22;58514;48.398;-4.274;2023-02-01T17:00:10;10.00;99.90
70269;DHT22;58514;48.398;-4.274;2023-02-01T17:02:37;9.90;99.90
70269;DHT22;58514;48.398;-4.274;2023-02-01T17:05:03;9.90;99.90
70269;DHT22;58514;48.398;-4.274;2023-02-01T17:07:28;9.90;99.90
70269;DHT22;58514;48.398;-4.274;2023-02-01T17:09:54;9.90;99.90
70269;DHT22;58514;48.398;-4.274;2023-02-01T17:12:24;9.90;99.90
70269;DHT22;58514;48.398;-4.274;2023-02-01T17:14:50;9.80;99.90
70269;DHT22;58514;48.398;-4.274;2023-02-01T17:17:16;9.80;99.90
70269;DHT22;58514;48.398;-4.274;2023-02-01T17:19:43;9.90;99.90
70269;DHT22;58514;48.398;-4.274;2023-02-01T17:22:09;9.80;99.90
70269;DHT22;58514;48.398;-4.274;2023-02-01T17:24:35;9.80;99.90
70269;DHT22;58514;48.398;-4.274;2023-02-01T17:27:00;9.80;99.90
70269;DHT22;58514;48.398;-4.274;2023-02-01T17:29:28;9.80;99.90
70269;DHT22;58514;48.398;-4.274;2023-02-01T17:31:54;9.80;99.90
70269;DHT22;58514;48.398;-4.274;2023-02-01T17:34:20;9.80;99.90
70269;DHT22;58514;48.398;-4.274;2023-02-01T17:36:47;9.80;99.90
70269;DHT22;58514;48.398;-4.274;2023-02-01T17:39:13;9.80;99.90
70269;DHT22;58514;48.398;-4.274;2023-02-01T17:41:59;9.80;99.90
70269;DHT22;58514;48.398;-4.274;2023-02-01T17:44:25;9.80;99.90
70269;DHT22;58514;48.398;-4.274;2023-02-01T17:46:50;9.80;99.90
70269;DHT22;58514;48.398;-4.274;2023-02-01T17:49:16;9.80;99.90
70269;DHT22;58514;48.398;-4.274;2023-02-01T17:51:42;9.80;99.90
70269;DHT22;58514;48.398;-4.274;2023-02-01T17:54:16;9.70;99.90
70269;DHT22;58514;48.398;-4.274;2023-02-01T17:56:44;9.80;99.90
70269;DHT22;58514;48.398;-4.274;2023-02-01T17:59:10;9.70;99.90